Decoded Metar for SACO (CORDOBA in ARGENTINA) (IATA:COR) | Meteo·Mobile Aviation Weather
aviador You're here:

SACO Decoded Metar

CORDOBA in ARGENTINA
Report Time2019-03-21 15:00:00
UTC Time2019-03-21 16:01:00
Flight Rules vfr VFR
Wind040° at 13 kt
W.Decomp.*RWY 05: 12.9 kt HW 1.6 kt LCW
RWY 36: 9.5 kt HW 8.9 kt RCW
W.Rank040° ranks 19
Current wind is above 040° avg. (10.4)
Visibility9999 m
Phenomena:N/A
Clouds:Few 040 Hf
Expected CloudBase > 3,600 ft AGL from Temp-Dew spread
CeilingNone
Temp20°C (ISA +8)
Dew Point11°C (56% RH)
AAT15.6°C
QNH1022 hPa
Density Alt2,379 ft
Elevation1,555 ft
Report Wrong Elevation
Raw Report
SACO 211500Z 04013KT 9999 FEW040 20/11 Q1022 NOSIG=

Extra information for SACO:More info

Metar Taf Metar & Taf Last 4 Metars F.Rules Stats Wind Profile Meteogram Temp Stats Airport Information Weather charts Add Link Nearby VenuesMetar ALERT Operation Metar Decoded Social comments